createdAt,value
2022-11-29T00:01:31.735Z,100927.83
2022-11-29T00:03:59.320Z,100929.60
2022-11-29T00:06:29.341Z,100923.66
2022-11-29T00:08:58.690Z,100925.48
2022-11-29T00:11:47.503Z,100925.78
2022-11-29T00:14:19.488Z,100928.98
2022-11-29T00:16:52.113Z,100925.98
2022-11-29T00:19:19.293Z,100923.34
2022-11-29T00:21:46.605Z,100923.61
2022-11-29T00:24:13.796Z,100925.55
2022-11-29T00:26:40.872Z,100925.70
2022-11-29T00:29:07.973Z,100924.10
2022-11-29T00:31:35.123Z,100926.62
2022-11-29T00:34:04.706Z,100918.50
2022-11-29T00:36:31.779Z,100918.10
2022-11-29T00:38:59.366Z,100916.78
2022-11-29T00:41:26.492Z,100921.15
2022-11-29T00:43:53.691Z,100919.59
2022-11-29T00:46:20.818Z,100917.42
2022-11-29T00:48:47.970Z,100915.18
2022-11-29T00:51:15.041Z,100916.35
2022-11-29T00:53:42.039Z,100914.89
2022-11-29T00:56:09.112Z,100912.31
2022-11-29T00:58:37.290Z,100908.94
2022-11-29T01:01:05.171Z,100909.02
2022-11-29T01:03:33.101Z,100912.52
2022-11-29T01:06:05.369Z,100918.33
2022-11-29T01:08:32.827Z,100914.52
2022-11-29T01:11:12.162Z,100911.22
2022-11-29T01:13:39.444Z,100910.77
2022-11-29T01:16:07.156Z,100911.86
2022-11-29T01:18:34.717Z,100910.40
2022-11-29T01:21:06.709Z,100914.30
2022-11-29T01:23:34.802Z,100910.63
2022-11-29T01:29:03.870Z,100909.58
2022-11-29T01:31:36.351Z,100906.17
2022-11-29T01:34:05.569Z,100908.25
2022-11-29T01:36:33.132Z,100911.77
2022-11-29T01:39:01.353Z,100908.36
2022-11-29T01:41:30.707Z,100912.44
2022-11-29T01:44:26.863Z,100906.50
2022-11-29T01:46:55.087Z,100909.51
2022-11-29T01:49:34.425Z,100906.03
2022-11-29T01:52:06.696Z,100906.94
2022-11-29T01:54:42.292Z,100907.06
2022-11-29T01:57:10.293Z,100902.68
2022-11-29T01:59:42.052Z,100903.13
2022-11-29T02:02:14.854Z,100901.13
2022-11-29T02:04:45.148Z,100900.86
2022-11-29T02:07:12.537Z,100899.52
2022-11-29T02:09:39.583Z,100901.25
2022-11-29T02:12:12.599Z,100897.89
2022-11-29T02:14:51.934Z,100899.04
2022-11-29T02:17:48.423Z,100895.30
2022-11-29T02:20:21.639Z,100893.19
2022-11-29T02:23:35.064Z,100898.38
2022-11-29T02:26:02.178Z,100899.77
2022-11-29T02:28:44.432Z,100895.64
2022-11-29T02:31:30.808Z,100901.59
2022-11-29T02:34:15.979Z,100900.42
2022-11-29T02:37:11.522Z,100905.57
2022-11-29T02:40:07.087Z,100911.10
2022-11-29T02:42:55.567Z,100910.35
2022-11-29T02:45:42.715Z,100911.77
2022-11-29T02:48:40.233Z,100916.91
2022-11-29T02:51:17.789Z,100916.45
2022-11-29T02:53:56.128Z,100915.53
2022-11-29T02:56:36.564Z,100914.49
2022-11-29T02:59:23.503Z,100913.15
2022-11-29T03:02:10.853Z,100916.50
2022-11-29T03:04:58.458Z,100922.40
2022-11-29T03:07:29.214Z,100917.90
2022-11-29T03:10:05.713Z,100926.56
2022-11-29T03:12:41.111Z,100926.17
2022-11-29T03:15:24.397Z,100929.55
2022-11-29T03:18:03.855Z,100931.18
2022-11-29T03:20:52.275Z,100929.17
2022-11-29T03:23:28.615Z,100929.63
2022-11-29T03:25:59.605Z,100926.17
2022-11-29T03:28:35.640Z,100921.52
2022-11-29T03:31:08.803Z,100917.68
2022-11-29T03:34:03.625Z,100915.97
2022-11-29T03:36:51.266Z,100918.23
2022-11-29T03:39:30.520Z,100916.11
2022-11-29T03:42:06.504Z,100917.77
2022-11-29T03:44:45.990Z,100922.64
2022-11-29T03:47:19.825Z,100923.23
2022-11-29T03:50:16.725Z,100927.23
2022-11-29T03:52:55.498Z,100929.77
2022-11-29T03:55:31.377Z,100931.37
2022-11-29T03:58:30.323Z,100931.88
2022-11-29T04:01:22.339Z,100931.54
2022-11-29T04:04:11.139Z,100931.12
2022-11-29T04:07:02.281Z,100928.85
2022-11-29T04:09:50.168Z,100933.02
2022-11-29T04:12:29.553Z,100935.85
2022-11-29T04:15:21.894Z,100942.35
2022-11-29T04:18:04.891Z,100942.24
2022-11-29T04:20:44.169Z,100947.82
2022-11-29T04:23:29.248Z,100948.38
2022-11-29T04:26:35.215Z,100948.60
2022-11-29T04:29:40.145Z,100951.92
2022-11-29T04:32:34.713Z,100954.57
2022-11-29T04:35:41.902Z,100958.04
2022-11-29T04:38:23.826Z,100955.91
2022-11-29T04:40:57.195Z,100958.81
2022-11-29T04:43:43.393Z,100962.55
2022-11-29T04:46:27.510Z,100959.53
2022-11-29T04:49:03.857Z,100967.94
2022-11-29T04:51:40.327Z,100967.80
2022-11-29T04:54:25.936Z,100970.33
2022-11-29T04:57:06.121Z,100969.31
2022-11-29T05:00:02.867Z,100973.14
2022-11-29T05:02:32.832Z,100977.89
2022-11-29T05:05:38.788Z,100978.20
2022-11-29T05:08:16.128Z,100981.88
2022-11-29T05:11:12.232Z,100981.60
2022-11-29T05:14:13.199Z,100984.14
2022-11-29T05:16:49.027Z,100986.28
2022-11-29T05:19:41.146Z,100984.91
2022-11-29T05:22:24.884Z,100989.63
2022-11-29T05:24:54.539Z,100992.52
2022-11-29T05:27:42.914Z,100990.33
2022-11-29T05:30:10.261Z,100995.39
2022-11-29T05:32:43.964Z,100994.95
2022-11-29T05:35:32.447Z,100993.46
2022-11-29T05:38:28.450Z,101001.01
2022-11-29T05:41:13.674Z,100994.55
2022-11-29T05:43:51.524Z,100997.92
2022-11-29T05:46:40.320Z,101002.13
2022-11-29T05:49:26.119Z,101003.52
2022-11-29T05:51:58.853Z,101005.92
2022-11-29T05:54:44.689Z,101008.36
2022-11-29T05:57:21.698Z,101013.95
2022-11-29T05:59:51.254Z,101014.54
2022-11-29T06:02:27.750Z,101015.42
2022-11-29T06:05:17.252Z,101019.09
2022-11-29T06:07:59.102Z,101018.55
2022-11-29T06:10:32.991Z,101021.05
2022-11-29T06:13:30.596Z,101020.49
2022-11-29T06:16:23.860Z,101021.84
2022-11-29T06:19:13.227Z,101028.50
2022-11-29T06:21:54.177Z,101029.12
2022-11-29T06:24:31.159Z,101028.85
2022-11-29T06:27:18.465Z,101029.93
2022-11-29T06:29:59.912Z,101031.75
2022-11-29T06:32:43.324Z,101037.66
2022-11-29T06:35:22.249Z,101037.50
2022-11-29T06:37:53.882Z,101042.08
2022-11-29T06:40:21.543Z,101042.73
2022-11-29T06:42:49.101Z,101044.17
2022-11-29T06:45:16.615Z,101045.29
2022-11-29T06:47:52.851Z,101045.86
2022-11-29T06:50:33.085Z,101043.85
2022-11-29T06:53:29.495Z,101045.80
2022-11-29T06:56:14.487Z,101047.59
2022-11-29T06:58:51.290Z,101047.75
2022-11-29T07:01:40.494Z,101051.73
2022-11-29T07:04:26.962Z,101055.05
2022-11-29T07:06:54.419Z,101061.27
2022-11-29T07:09:25.718Z,101065.13
2022-11-29T07:11:53.125Z,101065.45
2022-11-29T07:14:20.505Z,101068.98
2022-11-29T07:17:18.939Z,101072.09
2022-11-29T07:20:03.676Z,101078.39
2022-11-29T07:22:54.048Z,101081.79
2022-11-29T07:25:28.955Z,101085.59
2022-11-29T07:28:05.041Z,101089.34
2022-11-29T07:30:45.118Z,101091.61
2022-11-29T07:33:25.195Z,101093.70
2022-11-29T07:36:01.589Z,101092.42
2022-11-29T07:38:56.780Z,101093.18
2022-11-29T07:41:45.914Z,101096.03
2022-11-29T07:44:28.321Z,101092.89
2022-11-29T07:46:55.369Z,101095.77
2022-11-29T07:49:22.469Z,101092.19
2022-11-29T07:51:49.774Z,101099.36
2022-11-29T07:54:19.355Z,101095.63
2022-11-29T07:56:46.481Z,101095.17
2022-11-29T07:59:14.766Z,101102.25
2022-11-29T08:01:42.383Z,101103.77
2022-11-29T08:04:09.725Z,101103.23
2022-11-29T08:06:36.824Z,101099.80
2022-11-29T08:09:04.693Z,101092.15
2022-11-29T08:11:31.849Z,101096.48
2022-11-29T08:14:04.113Z,101097.80
2022-11-29T08:16:31.744Z,101099.34
2022-11-29T08:18:58.904Z,101096.15
2022-11-29T08:21:26.383Z,101097.58
2022-11-29T08:23:53.482Z,101095.52
2022-11-29T08:26:22.773Z,101096.67
2022-11-29T08:28:52.981Z,101095.54
2022-11-29T08:31:20.862Z,101100.30
2022-11-29T08:33:48.127Z,101102.94
2022-11-29T08:36:18.609Z,101096.52
2022-11-29T08:38:46.221Z,101097.43
2022-11-29T08:41:16.004Z,101099.62
2022-11-29T08:43:43.670Z,101093.39
2022-11-29T08:46:16.676Z,101096.41
2022-11-29T08:48:46.595Z,101096.38
2022-11-29T08:51:14.795Z,101095.35
2022-11-29T08:53:41.804Z,101099.48
2022-11-29T08:59:06.174Z,101095.71
2022-11-29T09:01:33.330Z,101094.54
2022-11-29T09:04:00.457Z,101091.98
2022-11-29T09:06:32.643Z,101090.67
2022-11-29T09:09:01.124Z,101096.41
2022-11-29T09:11:30.195Z,101093.48
2022-11-29T09:13:59.957Z,101093.20
2022-11-29T09:16:29.790Z,101090.31
2022-11-29T09:18:57.511Z,101090.55
2022-11-29T09:21:26.659Z,101091.27
2022-11-29T09:23:58.899Z,101092.15
2022-11-29T09:26:29.380Z,101090.38
2022-11-29T09:29:00.095Z,101089.59
2022-11-29T09:31:28.030Z,101090.09
2022-11-29T09:33:56.030Z,101088.33
2022-11-29T09:36:28.187Z,101089.85
2022-11-29T09:39:02.788Z,101092.17
2022-11-29T09:41:38.762Z,101085.89
2022-11-29T09:44:33.735Z,101088.05
2022-11-29T09:47:22.592Z,101088.44
2022-11-29T09:50:32.062Z,101091.03
2022-11-29T09:53:05.124Z,101089.38
2022-11-29T09:55:56.186Z,101086.11
2022-11-29T09:58:27.329Z,101086.39
2022-11-29T10:01:00.195Z,101089.00
2022-11-29T10:03:36.356Z,101087.77
2022-11-29T10:06:11.926Z,101086.83
2022-11-29T10:09:02.143Z,101087.04
2022-11-29T10:11:41.450Z,101089.09
2022-11-29T10:14:20.505Z,101088.27
2022-11-29T10:17:36.455Z,101093.80
2022-11-29T10:20:19.296Z,101097.72
2022-11-29T10:22:53.694Z,101097.27
2022-11-29T10:25:25.678Z,101098.02
2022-11-29T10:27:54.582Z,101101.48
2022-11-29T10:30:22.232Z,101101.39
2022-11-29T10:32:56.477Z,101101.08
2022-11-29T10:35:24.064Z,101104.10
2022-11-29T10:38:22.703Z,101109.83
2022-11-29T10:40:47.470Z,101111.38
2022-11-29T10:43:14.617Z,101108.27
2022-11-29T10:45:50.809Z,101107.70
2022-11-29T10:48:21.386Z,101107.44
2022-11-29T10:50:50.230Z,101108.05
2022-11-29T10:53:24.519Z,101106.34
2022-11-29T10:56:16.913Z,101109.26
2022-11-29T10:58:56.526Z,101107.81
2022-11-29T11:01:24.917Z,101105.47
2022-11-29T11:03:57.284Z,101111.95
2022-11-29T11:06:28.659Z,101113.80
2022-11-29T11:09:11.401Z,101110.75
2022-11-29T11:11:39.407Z,101115.16
2022-11-29T11:14:23.415Z,101117.27
2022-11-29T11:16:50.826Z,101117.99
2022-11-29T11:19:34.765Z,101121.35
2022-11-29T11:22:03.378Z,101116.69
2022-11-29T11:24:33.275Z,101120.21
2022-11-29T11:27:01.209Z,101116.77
2022-11-29T11:29:36.656Z,101118.05
2022-11-29T11:32:05.188Z,101117.54
2022-11-29T11:34:37.772Z,101116.97
2022-11-29T11:37:24.555Z,101122.40
2022-11-29T11:39:54.170Z,101122.48
2022-11-29T11:42:38.466Z,101124.45
2022-11-29T11:45:11.603Z,101124.92
2022-11-29T11:47:52.859Z,101125.58
2022-11-29T11:50:49.426Z,101129.75
2022-11-29T11:53:27.696Z,101129.20
2022-11-29T11:56:09.763Z,101134.12
2022-11-29T11:58:51.965Z,101138.84
2022-11-29T12:01:25.351Z,101139.96
2022-11-29T12:04:02.574Z,101139.86
2022-11-29T12:06:40.221Z,101142.65
2022-11-29T12:09:39.580Z,101145.33
2022-11-29T12:12:20.091Z,101141.97
2022-11-29T12:14:53.154Z,101140.75
2022-11-29T12:17:28.140Z,101132.78
2022-11-29T12:20:13.261Z,101132.84
2022-11-29T12:22:48.760Z,101134.18
2022-11-29T12:25:22.793Z,101131.68
2022-11-29T12:27:51.071Z,101135.52
2022-11-29T12:30:19.532Z,101135.77
2022-11-29T12:33:01.707Z,101132.96
2022-11-29T12:35:53.153Z,101134.77
2022-11-29T12:38:48.487Z,101133.52
2022-11-29T12:41:21.295Z,101134.58
2022-11-29T12:44:05.190Z,101135.63
2022-11-29T12:46:33.804Z,101138.41
2022-11-29T12:49:08.320Z,101135.17
2022-11-29T12:51:46.967Z,101138.14
2022-11-29T12:54:35.954Z,101140.66
2022-11-29T12:57:29.654Z,101143.47
2022-11-29T13:00:03.676Z,101145.93
2022-11-29T13:02:33.909Z,101144.48
2022-11-29T13:05:20.237Z,101146.92
2022-11-29T13:07:58.320Z,101151.48
2022-11-29T13:10:33.431Z,101149.47
2022-11-29T13:13:17.786Z,101149.83
2022-11-29T13:16:27.696Z,101154.85
2022-11-29T13:18:57.910Z,101157.20
2022-11-29T13:21:44.194Z,101154.14
2022-11-29T13:24:18.892Z,101158.33
2022-11-29T13:26:46.428Z,101155.77
2022-11-29T13:29:17.617Z,101156.23
2022-11-29T13:31:46.884Z,101161.21
2022-11-29T13:34:24.233Z,101159.47
2022-11-29T13:37:00.757Z,101164.55
2022-11-29T13:39:52.124Z,101165.75
2022-11-29T13:42:19.196Z,101164.64
2022-11-29T13:45:06.113Z,101168.44
2022-11-29T13:47:33.228Z,101168.63
2022-11-29T13:50:26.549Z,101173.92
2022-11-29T13:53:03.658Z,101175.94
2022-11-29T13:55:31.666Z,101176.39
2022-11-29T13:58:16.895Z,101170.04
2022-11-29T14:00:45.026Z,101172.34
2022-11-29T14:03:24.438Z,101174.23
2022-11-29T14:05:54.277Z,101173.61
2022-11-29T14:08:24.143Z,101175.71
2022-11-29T14:10:54.519Z,101174.29
2022-11-29T14:13:27.530Z,101171.41
2022-11-29T14:16:00.403Z,101173.42
2022-11-29T14:18:36.708Z,101170.17
2022-11-29T14:21:04.904Z,101171.69
2022-11-29T14:23:41.042Z,101169.84
2022-11-29T14:26:08.089Z,101171.23
2022-11-29T14:28:35.881Z,101171.95
2022-11-29T14:31:04.640Z,101173.45
2022-11-29T14:33:47.054Z,101177.29
2022-11-29T14:36:35.758Z,101174.91
2022-11-29T14:39:27.535Z,101171.97
2022-11-29T14:42:14.739Z,101176.54
2022-11-29T14:44:49.516Z,101171.50
2022-11-29T14:47:24.188Z,101174.16
2022-11-29T14:49:54.181Z,101179.16
2022-11-29T14:52:29.037Z,101179.48
2022-11-29T14:55:00.949Z,101180.61
2022-11-29T14:57:50.170Z,101179.77
2022-11-29T15:00:20.463Z,101176.84
2022-11-29T15:02:49.806Z,101175.02
2022-11-29T15:05:21.834Z,101182.60
2022-11-29T15:08:03.502Z,101182.42
2022-11-29T15:10:36.205Z,101186.01
2022-11-29T15:13:04.686Z,101188.65
2022-11-29T15:15:47.685Z,101190.23
2022-11-29T15:18:17.657Z,101189.64
2022-11-29T15:21:03.413Z,101190.87
2022-11-29T15:23:41.137Z,101189.42
2022-11-29T15:26:18.143Z,101188.91
2022-11-29T15:28:45.699Z,101188.95
2022-11-29T15:31:19.297Z,101190.98
2022-11-29T15:33:48.940Z,101196.39
2022-11-29T15:36:16.013Z,101194.08
2022-11-29T15:38:54.298Z,101193.38
2022-11-29T15:41:34.745Z,101202.81
2022-11-29T15:44:04.882Z,101201.25
2022-11-29T15:46:34.360Z,101204.68
2022-11-29T15:49:23.865Z,101212.74
2022-11-29T15:51:58.332Z,101212.01
2022-11-29T15:54:34.088Z,101210.23
2022-11-29T15:57:05.664Z,101214.09
2022-11-29T15:59:50.377Z,101219.17
2022-11-29T16:02:26.135Z,101220.73
2022-11-29T16:04:57.126Z,101223.13
2022-11-29T16:07:26.663Z,101222.45
2022-11-29T16:09:58.539Z,101222.08
2022-11-29T16:12:26.763Z,101223.79
2022-11-29T16:14:57.117Z,101226.14
2022-11-29T16:17:30.026Z,101222.02
2022-11-29T16:20:16.530Z,101226.01
2022-11-29T16:22:43.653Z,101229.91
2022-11-29T16:25:19.842Z,101231.20
2022-11-29T16:27:47.712Z,101232.71
2022-11-29T16:30:24.023Z,101233.91
2022-11-29T16:32:58.129Z,101235.52
2022-11-29T16:35:28.183Z,101234.84
2022-11-29T16:37:55.741Z,101234.53
2022-11-29T16:40:25.018Z,101235.65
2022-11-29T16:43:04.512Z,101233.89
2022-11-29T16:45:36.246Z,101236.35
2022-11-29T16:48:27.480Z,101236.61
2022-11-29T16:51:09.939Z,101236.98
2022-11-29T16:53:39.111Z,101240.58
2022-11-29T16:56:10.359Z,101238.14
2022-11-29T16:59:20.607Z,101243.12
2022-11-29T17:01:28.371Z,101238.31
2022-11-29T17:03:57.210Z,101239.17
2022-11-29T17:06:25.382Z,101238.31
2022-11-29T17:08:54.505Z,101238.45
2022-11-29T17:11:22.063Z,101235.58
2022-11-29T17:13:50.371Z,101237.80
2022-11-29T17:16:20.096Z,101241.55
2022-11-29T17:18:47.688Z,101242.70
2022-11-29T17:21:24.028Z,101246.98
2022-11-29T17:23:51.334Z,101248.46
2022-11-29T17:26:19.200Z,101252.08
2022-11-29T17:28:49.730Z,101253.94
2022-11-29T17:31:20.500Z,101251.48
2022-11-29T17:33:48.287Z,101253.95
2022-11-29T17:36:17.786Z,101252.30
2022-11-29T17:38:45.656Z,101249.70
2022-11-29T17:41:14.905Z,101251.23
2022-11-29T17:43:42.438Z,101253.11
2022-11-29T17:46:15.122Z,101252.02
2022-11-29T17:48:43.091Z,101252.80
2022-11-29T17:51:29.240Z,101254.94
2022-11-29T17:53:58.739Z,101257.41
2022-11-29T17:56:25.788Z,101254.77
2022-11-29T17:58:54.477Z,101258.94
2022-11-29T18:01:23.963Z,101259.70
2022-11-29T18:03:56.130Z,101262.98
2022-11-29T18:06:25.682Z,101265.73
2022-11-29T18:08:57.209Z,101267.75
2022-11-29T18:11:41.649Z,101268.48
2022-11-29T18:14:18.210Z,101267.88
2022-11-29T18:16:45.775Z,101271.52
2022-11-29T18:19:15.817Z,101265.49
2022-11-29T18:21:43.425Z,101270.39
2022-11-29T18:24:10.733Z,101272.13
2022-11-29T18:26:39.172Z,101268.31
2022-11-29T18:29:06.802Z,101272.08
2022-11-29T18:31:36.969Z,101275.27
2022-11-29T18:34:07.286Z,101276.50
2022-11-29T18:36:37.261Z,101276.35
2022-11-29T18:39:08.742Z,101270.79
2022-11-29T18:41:35.836Z,101275.57
2022-11-29T18:44:09.591Z,101278.19
2022-11-29T18:46:38.407Z,101272.63
2022-11-29T18:49:08.232Z,101274.23
2022-11-29T18:51:36.580Z,101278.02
2022-11-29T18:54:06.027Z,101275.52
2022-11-29T18:56:34.817Z,101279.30
2022-11-29T18:59:05.512Z,101279.55
2022-11-29T19:01:35.631Z,101280.23
2022-11-29T19:04:02.720Z,101279.70
2022-11-29T19:06:38.983Z,101280.48
2022-11-29T19:09:11.312Z,101279.75
2022-11-29T19:11:38.869Z,101282.38
2022-11-29T19:14:14.226Z,101281.34
2022-11-29T19:16:43.768Z,101284.67
2022-11-29T19:19:11.688Z,101285.29
2022-11-29T19:21:40.093Z,101284.06
2022-11-29T19:24:14.099Z,101285.52
2022-11-29T19:26:44.555Z,101290.03
2022-11-29T19:29:13.502Z,101290.43
2022-11-29T19:31:41.221Z,101289.07
2022-11-29T19:34:08.341Z,101293.25
2022-11-29T19:36:42.967Z,101293.73
2022-11-29T19:39:13.083Z,101288.38
2022-11-29T19:41:42.463Z,101286.00
2022-11-29T19:44:10.327Z,101284.70
2022-11-29T19:46:40.492Z,101287.63
2022-11-29T19:49:09.338Z,101288.22
2022-11-29T19:51:36.770Z,101289.02
2022-11-29T19:54:07.454Z,101291.93
2022-11-29T19:56:34.681Z,101295.46
2022-11-29T19:59:01.801Z,101297.91
2022-11-29T20:01:37.747Z,101295.59
2022-11-29T20:04:05.148Z,101299.90
2022-11-29T20:06:32.191Z,101307.18
2022-11-29T20:08:59.265Z,101303.35
2022-11-29T20:11:26.802Z,101306.30
2022-11-29T20:13:59.053Z,101316.13
2022-11-29T20:16:27.478Z,101309.70
2022-11-29T20:18:55.241Z,101311.48
2022-11-29T20:21:25.492Z,101312.25
2022-11-29T20:24:19.591Z,101312.09
2022-11-29T20:26:48.366Z,101313.40
2022-11-29T20:29:16.302Z,101314.84
2022-11-29T20:31:50.050Z,101312.41
2022-11-29T20:34:18.643Z,101314.88
2022-11-29T20:37:23.657Z,101313.25
2022-11-29T20:39:58.359Z,101313.51
2022-11-29T20:43:02.760Z,101313.42
2022-11-29T20:45:30.171Z,101308.42
2022-11-29T20:48:12.216Z,101310.38
2022-11-29T20:50:40.389Z,101309.70
2022-11-29T20:53:38.159Z,101306.69
2022-11-29T20:56:06.717Z,101309.39
2022-11-29T20:58:34.227Z,101312.69
2022-11-29T21:01:02.015Z,101309.91
2022-11-29T21:03:29.475Z,101311.67
2022-11-29T21:05:57.828Z,101311.05
2022-11-29T21:08:26.695Z,101314.89
2022-11-29T21:10:54.460Z,101314.19
2022-11-29T21:13:23.043Z,101314.55
2022-11-29T21:15:50.435Z,101319.02
2022-11-29T21:18:22.644Z,101319.12
2022-11-29T21:21:00.212Z,101320.42
2022-11-29T21:23:48.204Z,101321.03
2022-11-29T21:26:40.074Z,101316.26
2022-11-29T21:29:16.067Z,101319.63
2022-11-29T21:31:45.048Z,101322.41
2022-11-29T21:34:12.107Z,101323.22
2022-11-29T21:36:39.769Z,101325.19
2022-11-29T21:39:08.125Z,101322.42
2022-11-29T21:41:35.172Z,101326.07
2022-11-29T21:44:07.436Z,101327.27
2022-11-29T21:46:35.328Z,101327.85
2022-11-29T21:49:02.460Z,101327.83
2022-11-29T21:51:29.511Z,101326.55
2022-11-29T21:53:56.481Z,101328.31
2022-11-29T21:56:23.659Z,101327.55
2022-11-29T21:58:50.758Z,101328.79
2022-11-29T22:01:19.826Z,101327.23
2022-11-29T22:03:47.956Z,101333.36
2022-11-29T22:06:18.714Z,101331.81
2022-11-29T22:08:46.812Z,101329.30
2022-11-29T22:11:32.210Z,101326.82
2022-11-29T22:14:19.919Z,101328.16
2022-11-29T22:16:52.880Z,101326.37
2022-11-29T22:19:28.171Z,101323.75
2022-11-29T22:21:59.908Z,101321.64
2022-11-29T22:24:29.829Z,101324.55
2022-11-29T22:26:57.330Z,101325.11
2022-11-29T22:29:25.075Z,101318.20
2022-11-29T22:31:54.983Z,101315.70
2022-11-29T22:34:25.319Z,101316.05
2022-11-29T22:36:52.664Z,101317.73
2022-11-29T22:39:19.791Z,101322.08
2022-11-29T22:41:53.709Z,101322.09
2022-11-29T22:44:21.758Z,101322.44
2022-11-29T22:46:49.197Z,101324.65
2022-11-29T22:49:16.561Z,101329.27
2022-11-29T22:51:43.780Z,101325.55
2022-11-29T22:54:17.592Z,101325.95
2022-11-29T22:56:46.049Z,101325.32
2022-11-29T22:59:13.224Z,101320.39
2022-11-29T23:01:41.985Z,101321.57
2022-11-29T23:04:10.392Z,101319.96
2022-11-29T23:06:42.538Z,101323.89
2022-11-29T23:09:19.057Z,101326.39
2022-11-29T23:11:51.038Z,101326.30
2022-11-29T23:14:19.399Z,101325.84
2022-11-29T23:16:46.799Z,101318.98
2022-11-29T23:19:16.278Z,101322.29
2022-11-29T23:21:45.769Z,101320.09
2022-11-29T23:24:14.686Z,101317.85
2022-11-29T23:26:45.340Z,101313.79
2022-11-29T23:29:15.846Z,101316.14
2022-11-29T23:31:43.383Z,101315.69
2022-11-29T23:34:10.561Z,101314.73
2022-11-29T23:36:37.710Z,101314.53
2022-11-29T23:39:06.810Z,101312.73
2022-11-29T23:41:35.661Z,101310.23
2022-11-29T23:44:06.666Z,101312.23
2022-11-29T23:46:35.278Z,101309.29
2022-11-29T23:49:02.621Z,101311.85
2022-11-29T23:51:30.037Z,101313.34
2022-11-29T23:53:57.054Z,101317.11
2022-11-29T23:56:24.177Z,101319.41
2022-11-29T23:58:51.242Z,101317.70
